Time;durP1;ratioP1;P1;durP2;ratioP2;P2;SDS_P1;SDS_P2;PMS_P1;PMS_P2;Temp;Humidity;BMP_temperature;BMP_pressure;BME280_temperature;BME280_humidity;BME280_pressure;Samples;Min_cycle;Max_cycle;Signal;HPM_P1;HPM_P2
2022/04/16 00:03:00;;;;;;;29.00;13.45;;;;;;;;;;8416922;28;20040;-76
2022/04/16 00:07:04;;;;;;;33.55;15.95;;;;;;;;;;8415492;28;20124;-76
2022/04/16 00:11:07;;;;;;;25.83;12.82;;;;;;;;;;8404888;28;20068;-76
2022/04/16 00:15:11;;;;;;;29.23;12.88;;;;;;;;;;8398060;28;20117;-76
2022/04/16 00:19:14;;;;;;;23.50;10.90;;;;;;;;;;8400404;28;20045;-76
2022/04/16 00:23:19;;;;;;;21.50;9.55;;;;;;;;;;8411670;28;20040;-76
2022/04/16 00:27:23;;;;;;;20.05;10.88;;;;;;;;;;8414511;28;20044;-77
2022/04/16 00:31:28;;;;;;;18.25;9.18;;;;;;;;;;8393700;28;20055;-77
2022/04/16 00:35:31;;;;;;;20.23;10.13;;;;;;;;;;8397154;28;20048;-77
2022/04/16 00:39:35;;;;;;;14.95;8.30;;;;;;;;;;8397565;28;20057;-77
2022/04/16 00:43:38;;;;;;;15.10;7.63;;;;;;;;;;8397291;28;20048;-77
2022/04/16 00:47:40;;;;;;;16.30;7.72;;;;;;;;;;8411501;28;20059;-76
2022/04/16 00:51:46;;;;;;;12.02;7.60;;;;;;;;;;8408050;28;20155;-76
2022/04/16 00:55:50;;;;;;;14.05;9.07;;;;;;;;;;8402542;28;20119;-78
2022/04/16 00:59:53;;;;;;;14.23;7.97;;;;;;;;;;8416489;28;20052;-76
2022/04/16 01:03:56;;;;;;;12.50;7.32;;;;;;;;;;8381439;28;20040;-76
2022/04/16 01:08:02;;;;;;;15.10;8.00;;;;;;;;;;8395552;28;20048;-76
2022/04/16 01:12:07;;;;;;;15.50;9.10;;;;;;;;;;8392228;28;20453;-76
2022/04/16 01:16:10;;;;;;;13.32;8.00;;;;;;;;;;8396759;28;20541;-77
2022/04/16 01:20:12;;;;;;;14.63;9.15;;;;;;;;;;8396640;28;20056;-77
2022/04/16 01:24:19;;;;;;;17.60;9.75;;;;;;;;;;8396761;28;20045;-77
2022/04/16 01:28:22;;;;;;;19.35;14.13;;;;;;;;;;8396676;28;20048;-74
2022/04/16 01:32:25;;;;;;;16.35;9.77;;;;;;;;;;8397124;28;20044;-74
2022/04/16 01:36:29;;;;;;;16.08;9.65;;;;;;;;;;8397658;28;20046;-77
2022/04/16 01:40:34;;;;;;;16.15;9.60;;;;;;;;;;8396485;28;20049;-76
2022/04/16 01:44:36;;;;;;;13.45;7.50;;;;;;;;;;8396890;28;20523;-76
2022/04/16 01:48:39;;;;;;;15.07;8.80;;;;;;;;;;8400112;28;20385;-76
2022/04/16 01:52:42;;;;;;;15.40;9.85;;;;;;;;;;8404907;28;20587;-77
2022/04/16 01:56:47;;;;;;;13.30;8.93;;;;;;;;;;8396027;28;20094;-78
2022/04/16 02:00:49;;;;;;;14.45;7.70;;;;;;;;;;8396561;28;20052;-78
2022/04/16 02:04:52;;;;;;;11.43;6.70;;;;;;;;;;8396564;28;20118;-78
2022/04/16 02:08:54;;;;;;;15.18;10.68;;;;;;;;;;8396013;28;20515;-78
2022/04/16 02:13:00;;;;;;;14.45;7.20;;;;;;;;;;8399156;28;20049;-78
2022/04/16 02:17:02;;;;;;;14.55;8.38;;;;;;;;;;8407747;28;20088;-77
2022/04/16 02:21:05;;;;;;;10.55;6.78;;;;;;;;;;8435414;28;20056;-77
2022/04/16 02:25:10;;;;;;;11.50;7.53;;;;;;;;;;8435883;28;20040;-77
2022/04/16 02:29:14;;;;;;;10.15;6.90;;;;;;;;;;8435271;28;20055;-77
2022/04/16 02:33:16;;;;;;;10.23;7.38;;;;;;;;;;8416546;28;20048;-77
2022/04/16 02:37:19;;;;;;;11.15;8.00;;;;;;;;;;8401939;28;20497;-76
2022/04/16 02:41:22;;;;;;;9.40;5.95;;;;;;;;;;8401807;28;20052;-77
2022/04/16 02:49:45;;;;;;;9.68;7.22;;;;;;;;;;8434104;28;20528;-77
2022/04/16 02:53:49;;;;;;;14.13;8.18;;;;;;;;;;8406986;28;20053;-77
2022/04/16 02:57:52;;;;;;;14.60;9.77;;;;;;;;;;8367772;28;20127;-77
2022/04/16 03:01:56;;;;;;;13.98;10.88;;;;;;;;;;8384479;28;20061;-77
2022/04/16 03:05:59;;;;;;;13.60;10.60;;;;;;;;;;8402149;28;20040;-78
2022/04/16 03:10:02;;;;;;;14.07;8.20;;;;;;;;;;8400958;28;20067;-78
2022/04/16 03:18:23;;;;;;;14.57;9.52;;;;;;;;;;8427840;28;20048;-77
2022/04/16 03:22:25;;;;;;;10.55;6.22;;;;;;;;;;8431869;28;20048;-77
2022/04/16 03:26:27;;;;;;;13.27;8.38;;;;;;;;;;8434026;28;20545;-77
2022/04/16 03:30:30;;;;;;;14.43;6.88;;;;;;;;;;8433391;28;20048;-77
2022/04/16 03:34:34;;;;;;;15.23;9.68;;;;;;;;;;8433766;28;20074;-78
2022/04/16 03:38:36;;;;;;;12.15;7.47;;;;;;;;;;8402858;28;20434;-78
2022/04/16 03:42:46;;;;;;;12.88;7.30;;;;;;;;;;8399959;28;20139;-78
2022/04/16 03:46:48;;;;;;;15.60;7.28;;;;;;;;;;8399479;28;20041;-78
2022/04/16 03:50:52;;;;;;;12.77;7.20;;;;;;;;;;8400458;28;20036;-78
2022/04/16 04:03:35;;;;;;;12.65;7.63;;;;;;;;;;8398763;28;20051;-78
2022/04/16 04:07:39;;;;;;;14.32;9.02;;;;;;;;;;8424855;28;20052;-78
2022/04/16 04:11:42;;;;;;;13.43;9.15;;;;;;;;;;8432586;28;20044;-78
2022/04/16 04:15:45;;;;;;;11.52;7.47;;;;;;;;;;8431776;28;20063;-78
2022/04/16 04:19:48;;;;;;;13.20;7.78;;;;;;;;;;8427181;28;20056;-78
2022/04/16 04:23:52;;;;;;;12.88;9.25;;;;;;;;;;8398047;28;20102;-78
2022/04/16 04:27:55;;;;;;;10.45;6.50;;;;;;;;;;8398063;28;20052;-78
2022/04/16 04:31:57;;;;;;;10.95;6.57;;;;;;;;;;8398397;28;20056;-78
2022/04/16 04:36:00;;;;;;;12.48;7.10;;;;;;;;;;8386868;28;20460;-78
2022/04/16 04:40:05;;;;;;;11.57;6.97;;;;;;;;;;8386582;28;20127;-76
2022/04/16 04:44:08;;;;;;;12.43;8.02;;;;;;;;;;8394968;28;20462;-76
2022/04/16 04:48:11;;;;;;;11.52;8.00;;;;;;;;;;8396919;28;20123;-77
2022/04/16 04:52:21;;;;;;;11.60;7.38;;;;;;;;;;8398390;28;20045;-78
2022/04/16 04:56:25;;;;;;;11.88;9.07;;;;;;;;;;8397852;28;20479;-78
2022/04/16 05:00:28;;;;;;;11.23;7.80;;;;;;;;;;8397150;28;20090;-77
2022/04/16 05:04:30;;;;;;;13.60;7.85;;;;;;;;;;8398380;28;20049;-79
2022/04/16 05:08:33;;;;;;;13.02;9.20;;;;;;;;;;8411105;28;20040;-79
2022/04/16 05:12:37;;;;;;;10.65;7.13;;;;;;;;;;8427216;28;20052;-77
2022/04/16 05:16:39;;;;;;;10.80;6.65;;;;;;;;;;8363642;28;20057;-77
2022/04/16 05:20:42;;;;;;;12.77;7.30;;;;;;;;;;8364097;28;20044;-77
2022/04/16 05:24:45;;;;;;;13.43;7.78;;;;;;;;;;8386541;28;20617;-77
2022/04/16 05:28:49;;;;;;;13.05;7.10;;;;;;;;;;8396661;28;20064;-78
2022/04/16 05:32:51;;;;;;;11.27;6.45;;;;;;;;;;8397051;28;20051;-78
2022/04/16 05:36:54;;;;;;;11.07;7.38;;;;;;;;;;8397231;28;20559;-79
2022/04/16 05:40:57;;;;;;;12.23;7.07;;;;;;;;;;8374808;28;20105;-79
2022/04/16 05:45:05;;;;;;;9.85;6.07;;;;;;;;;;8396786;28;20055;-76
2022/04/16 05:49:08;;;;;;;11.32;7.40;;;;;;;;;;8403484;28;20128;-76
2022/04/16 05:53:13;;;;;;;12.57;7.53;;;;;;;;;;8401297;28;20047;-76
2022/04/16 05:57:17;;;;;;;8.77;6.05;;;;;;;;;;8397761;28;20053;-76
2022/04/16 06:01:21;;;;;;;11.82;5.65;;;;;;;;;;8377291;28;20464;-77
2022/04/16 06:05:25;;;;;;;9.00;5.88;;;;;;;;;;8402584;28;20048;-77
2022/04/16 06:09:28;;;;;;;9.00;5.93;;;;;;;;;;8399594;28;20503;-77
2022/04/16 06:13:32;;;;;;;9.70;6.10;;;;;;;;;;8399380;28;20526;-77
2022/04/16 06:17:38;;;;;;;8.73;5.50;;;;;;;;;;8402165;28;20040;-77
2022/04/16 06:21:41;;;;;;;6.95;5.38;;;;;;;;;;8401916;28;20052;-77
2022/04/16 06:25:43;;;;;;;7.90;4.85;;;;;;;;;;8402331;28;20404;-78
2022/04/16 06:29:46;;;;;;;9.00;4.93;;;;;;;;;;8401778;28;20071;-78
2022/04/16 06:33:54;;;;;;;14.80;6.50;;;;;;;;;;8402614;28;20491;-78
2022/04/16 06:37:57;;;;;;;10.20;5.50;;;;;;;;;;8407690;28;20438;-80
2022/04/16 06:42:01;;;;;;;9.45;5.63;;;;;;;;;;8403617;28;20135;-80
2022/04/16 06:46:03;;;;;;;9.43;5.03;;;;;;;;;;8396641;28;20074;-80
2022/04/16 06:50:10;;;;;;;12.57;6.07;;;;;;;;;;8392022;28;20044;-79
2022/04/16 06:54:13;;;;;;;9.73;6.03;;;;;;;;;;8394107;28;20109;-79
2022/04/16 06:58:15;;;;;;;10.45;5.30;;;;;;;;;;8423938;28;20052;-79
2022/04/16 07:02:20;;;;;;;6.55;4.13;;;;;;;;;;8419022;28;20044;-79
2022/04/16 07:06:27;;;;;;;10.70;4.95;;;;;;;;;;8407107;28;20389;-79
2022/04/16 07:10:31;;;;;;;7.68;4.57;;;;;;;;;;8405980;28;20047;-79
2022/04/16 07:14:36;;;;;;;10.75;5.32;;;;;;;;;;8380564;28;20064;-78
2022/04/16 07:18:39;;;;;;;6.82;3.88;;;;;;;;;;8386966;28;20047;-77
2022/04/16 07:22:44;;;;;;;7.40;4.00;;;;;;;;;;8383542;28;20045;-77
2022/04/16 07:26:53;;;;;;;8.65;3.80;;;;;;;;;;8365835;28;20385;-78
2022/04/16 07:30:58;;;;;;;9.23;3.92;;;;;;;;;;8365974;28;20059;-78
2022/04/16 07:35:03;;;;;;;6.20;3.65;;;;;;;;;;8373175;28;20040;-79
2022/04/16 07:39:08;;;;;;;8.77;4.07;;;;;;;;;;8393123;28;20037;-75
2022/04/16 07:43:14;;;;;;;7.00;3.38;;;;;;;;;;8372148;28;20477;-76
2022/04/16 07:47:20;;;;;;;14.90;9.07;;;;;;;;;;8375465;28;20048;-76
2022/04/16 07:51:23;;;;;;;4.22;2.80;;;;;;;;;;8370698;28;20124;-76
2022/04/16 07:55:33;;;;;;;4.20;2.45;;;;;;;;;;8390071;28;20049;-76
2022/04/16 07:59:36;;;;;;;7.63;4.60;;;;;;;;;;8365487;28;20124;-76
2022/04/16 08:03:39;;;;;;;5.40;3.13;;;;;;;;;;8387442;28;20056;-76
2022/04/16 08:07:42;;;;;;;11.57;5.65;;;;;;;;;;8378430;28;20115;-75
2022/04/16 08:11:47;;;;;;;4.65;3.10;;;;;;;;;;8396860;28;20119;-75
2022/04/16 08:15:52;;;;;;;3.85;2.63;;;;;;;;;;8405752;28;20083;-77
2022/04/16 08:19:58;;;;;;;4.50;2.63;;;;;;;;;;8382134;28;20049;-77
2022/04/16 08:24:28;;;;;;;2.70;2.10;;;;;;;;;;8416116;28;20046;-76
2022/04/16 08:28:46;;;;;;;11.40;6.50;;;;;;;;;;8422285;28;20044;-77
2022/04/16 08:32:52;;;;;;;11.68;6.20;;;;;;;;;;8392144;28;20121;-78
2022/04/16 08:36:57;;;;;;;7.22;3.80;;;;;;;;;;8392975;28;20059;-79
2022/04/16 08:41:04;;;;;;;2.72;1.98;;;;;;;;;;8393715;28;20165;-78
2022/04/16 08:45:12;;;;;;;6.25;4.40;;;;;;;;;;8396804;28;20039;-76
2022/04/16 08:49:19;;;;;;;3.45;1.95;;;;;;;;;;8417493;28;20544;-75
2022/04/16 08:53:23;;;;;;;4.00;2.33;;;;;;;;;;8404410;28;20028;-76
2022/04/16 08:57:27;;;;;;;7.05;3.65;;;;;;;;;;8396729;28;20412;-75
2022/04/16 09:01:32;;;;;;;18.48;10.48;;;;;;;;;;8396975;28;20143;-75
2022/04/16 09:05:37;;;;;;;11.98;5.65;;;;;;;;;;8397062;28;20132;-75
2022/04/16 09:09:44;;;;;;;4.70;2.40;;;;;;;;;;8396740;28;20128;-77
2022/04/16 09:13:53;;;;;;;7.43;3.28;;;;;;;;;;8396164;28;20508;-76
2022/04/16 09:18:04;;;;;;;12.63;4.88;;;;;;;;;;8402448;28;20044;-76
2022/04/16 09:22:10;;;;;;;10.15;4.07;;;;;;;;;;8404746;28;20059;-75
2022/04/16 09:26:26;;;;;;;7.50;3.75;;;;;;;;;;8392175;28;20373;-78
2022/04/16 09:31:04;;;;;;;12.68;5.63;;;;;;;;;;8367816;28;20071;-77
2022/04/16 09:35:41;;;;;;;14.70;5.93;;;;;;;;;;8395361;28;20409;-77
2022/04/16 09:40:02;;;;;;;8.23;4.13;;;;;;;;;;8396379;28;20041;-77
2022/04/16 09:44:32;;;;;;;22.35;9.27;;;;;;;;;;8395509;28;20053;-76
2022/04/16 09:48:50;;;;;;;10.13;4.72;;;;;;;;;;8380533;28;20048;-77
2022/04/16 09:53:11;;;;;;;7.93;4.13;;;;;;;;;;8390713;28;20055;-77
2022/04/16 09:57:38;;;;;;;15.15;7.22;;;;;;;;;;8396354;28;20127;-77
2022/04/16 10:02:24;;;;;;;11.25;5.22;;;;;;;;;;8395570;28;20041;-76
2022/04/16 10:06:35;;;;;;;12.43;5.40;;;;;;;;;;8368044;28;20045;-77
2022/04/16 10:10:57;;;;;;;4.80;2.55;;;;;;;;;;8366161;28;20488;-77
2022/04/16 10:15:18;;;;;;;4.28;2.50;;;;;;;;;;8362390;28;20065;-77
2022/04/16 10:19:43;;;;;;;5.00;2.50;;;;;;;;;;8362365;28;20049;-77
2022/04/16 10:24:08;;;;;;;5.82;2.67;;;;;;;;;;8380049;28;20048;-78
2022/04/16 10:28:25;;;;;;;5.13;2.78;;;;;;;;;;8362601;28;20052;-77
2022/04/16 10:32:40;;;;;;;5.43;2.92;;;;;;;;;;8385090;28;20051;-77
2022/04/16 10:36:54;;;;;;;7.82;3.95;;;;;;;;;;8371475;28;20045;-77
2022/04/16 10:41:18;;;;;;;6.10;2.97;;;;;;;;;;8366737;28;20056;-77
2022/04/16 10:45:52;;;;;;;5.63;2.72;;;;;;;;;;8382841;28;20044;-77
2022/04/16 10:55:14;;;;;;;5.40;2.97;;;;;;;;;;8394205;28;20499;-76
2022/04/16 10:59:20;;;;;;;4.65;3.33;;;;;;;;;;8406050;28;20061;-76
2022/04/16 11:03:31;;;;;;;4.00;1.95;;;;;;;;;;8400894;28;20527;-76
2022/04/16 11:07:35;;;;;;;7.40;3.58;;;;;;;;;;8410076;28;20514;-77
2022/04/16 11:11:39;;;;;;;3.75;2.17;;;;;;;;;;8400095;28;20052;-77
2022/04/16 11:15:42;;;;;;;6.80;3.95;;;;;;;;;;8400607;28;20055;-76
2022/04/16 11:19:48;;;;;;;5.22;2.38;;;;;;;;;;8421842;28;20051;-77
2022/04/16 11:23:53;;;;;;;6.60;3.33;;;;;;;;;;8399750;28;20496;-77
2022/04/16 11:36:39;;;;;;;6.35;3.58;;;;;;;;;;8403107;28;20047;-80
2022/04/16 11:40:42;;;;;;;8.43;3.65;;;;;;;;;;8406792;28;20067;-75
2022/04/16 11:44:52;;;;;;;3.67;2.63;;;;;;;;;;8403260;28;20052;-77
2022/04/16 11:49:04;;;;;;;3.42;2.40;;;;;;;;;;8390893;28;20511;-78
2022/04/16 11:53:13;;;;;;;4.13;2.60;;;;;;;;;;8391917;28;20047;-76
2022/04/16 11:57:23;;;;;;;5.15;2.60;;;;;;;;;;8391517;28;20458;-75
2022/04/16 12:01:54;;;;;;;5.65;2.90;;;;;;;;;;8383862;28;20036;-75
2022/04/16 12:06:13;;;;;;;3.40;2.10;;;;;;;;;;8387326;28;20469;-77
2022/04/16 12:10:45;;;;;;;2.67;1.88;;;;;;;;;;8369751;28;20045;-78
2022/04/16 12:14:51;;;;;;;5.70;2.55;;;;;;;;;;8397107;28;20470;-76
2022/04/16 12:18:55;;;;;;;2.58;2.00;;;;;;;;;;8385527;28;20044;-77
2022/04/16 12:23:02;;;;;;;8.45;4.45;;;;;;;;;;8399163;28;20044;-76
2022/04/16 12:27:07;;;;;;;6.95;3.15;;;;;;;;;;8380916;28;20396;-77
2022/04/16 12:31:12;;;;;;;3.50;2.08;;;;;;;;;;8376767;28;20064;-77
2022/04/16 12:35:18;;;;;;;23.05;8.93;;;;;;;;;;8380480;28;20401;-77
2022/04/16 12:39:24;;;;;;;4.07;1.90;;;;;;;;;;8393340;28;20044;-76
2022/04/16 12:43:29;;;;;;;5.18;2.50;;;;;;;;;;8397022;28;20059;-73
2022/04/16 12:47:32;;;;;;;10.82;4.18;;;;;;;;;;8394112;28;20037;-76
2022/04/16 12:51:35;;;;;;;4.05;2.55;;;;;;;;;;8404362;28;20040;-77
2022/04/16 12:55:43;;;;;;;6.13;2.90;;;;;;;;;;8396093;28;20047;-75
2022/04/16 12:59:50;;;;;;;3.58;1.95;;;;;;;;;;8382046;28;20491;-76
2022/04/16 13:03:55;;;;;;;5.28;2.67;;;;;;;;;;8392931;28;20044;-77
2022/04/16 13:08:01;;;;;;;3.40;2.10;;;;;;;;;;8383777;28;20047;-76
2022/04/16 13:12:05;;;;;;;5.43;2.80;;;;;;;;;;8396742;28;20041;-76
2022/04/16 13:16:10;;;;;;;4.10;2.40;;;;;;;;;;8407789;28;20056;-76
2022/04/16 13:20:15;;;;;;;6.07;3.17;;;;;;;;;;8401393;28;20403;-76
2022/04/16 13:24:18;;;;;;;3.97;2.47;;;;;;;;;;8404244;28;20490;-76
2022/04/16 13:28:22;;;;;;;3.40;2.28;;;;;;;;;;8405650;28;20449;-76
2022/04/16 13:32:26;;;;;;;8.20;3.70;;;;;;;;;;8397361;28;20052;-76
2022/04/16 13:36:30;;;;;;;2.97;2.10;;;;;;;;;;8396107;28;20151;-76
2022/04/16 13:44:58;;;;;;;5.10;2.50;;;;;;;;;;8403567;28;20045;-76
2022/04/16 13:49:03;;;;;;;20.13;7.63;;;;;;;;;;8407612;28;20047;-76
2022/04/16 13:53:06;;;;;;;7.40;3.30;;;;;;;;;;8409483;28;20040;-76
2022/04/16 13:57:09;;;;;;;10.23;5.20;;;;;;;;;;8429466;28;20127;-75
2022/04/16 14:01:15;;;;;;;5.50;2.70;;;;;;;;;;8400072;28;20044;-76
2022/04/16 14:09:39;;;;;;;;;;;;;;;;;;8414141;28;20101;-75
2022/04/16 14:13:43;;;;;;;4.55;2.65;;;;;;;;;;8416279;28;20363;-76
2022/04/16 14:17:47;;;;;;;8.30;3.90;;;;;;;;;;8421721;28;20040;-76
2022/04/16 14:21:53;;;;;;;9.95;4.57;;;;;;;;;;8430945;28;20064;-77
2022/04/16 14:25:56;;;;;;;10.77;5.22;;;;;;;;;;8421274;28;20053;-75
2022/04/16 14:29:59;;;;;;;3.25;2.20;;;;;;;;;;8402204;28;20135;-76
2022/04/16 14:34:04;;;;;;;4.25;2.72;;;;;;;;;;8413014;28;20567;-76
2022/04/16 14:38:12;;;;;;;4.03;2.10;;;;;;;;;;8415635;28;20041;-76
2022/04/16 14:42:16;;;;;;;10.07;4.60;;;;;;;;;;8405923;28;20123;-76
2022/04/16 14:46:19;;;;;;;22.08;8.55;;;;;;;;;;8415115;28;20045;-76
2022/04/16 14:50:22;;;;;;;7.38;3.95;;;;;;;;;;8403417;28;20123;-76
2022/04/16 14:54:26;;;;;;;6.15;2.33;;;;;;;;;;8422086;28;20071;-77
2022/04/16 14:58:30;;;;;;;12.77;6.38;;;;;;;;;;8433905;28;20051;-76
2022/04/16 15:02:33;;;;;;;5.88;3.30;;;;;;;;;;8430512;28;20049;-76
2022/04/16 15:06:36;;;;;;;8.38;4.07;;;;;;;;;;8399603;28;20048;-76
2022/04/16 15:10:41;;;;;;;8.98;4.53;;;;;;;;;;8408136;28;20085;-76
2022/04/16 15:14:44;;;;;;;12.73;6.25;;;;;;;;;;8414244;28;20071;-75
2022/04/16 15:18:46;;;;;;;14.90;6.30;;;;;;;;;;8396034;28;20063;-76
2022/04/16 15:22:50;;;;;;;13.10;4.53;;;;;;;;;;8399414;28;20189;-76
2022/04/16 15:26:54;;;;;;;7.80;3.60;;;;;;;;;;8388278;28;20454;-76
2022/04/16 15:31:10;;;;;;;13.82;5.03;;;;;;;;;;8377160;28;20050;-76
2022/04/16 15:35:14;;;;;;;17.65;6.50;;;;;;;;;;8392813;28;20408;-76
2022/04/16 15:39:20;;;;;;;3.53;2.25;;;;;;;;;;8383133;28;20044;-76
2022/04/16 15:43:25;;;;;;;7.40;2.97;;;;;;;;;;8392361;28;20140;-75
2022/04/16 15:47:29;;;;;;;10.93;4.75;;;;;;;;;;8384786;28;20405;-76
2022/04/16 15:51:33;;;;;;;5.28;3.30;;;;;;;;;;8406699;28;20492;-77
2022/04/16 15:55:36;;;;;;;9.60;3.80;;;;;;;;;;8404154;28;20097;-76
2022/04/16 15:59:40;;;;;;;7.07;3.42;;;;;;;;;;8393656;28;20487;-77
2022/04/16 16:03:44;;;;;;;10.32;4.53;;;;;;;;;;8388395;28;20052;-76
2022/04/16 16:07:47;;;;;;;3.90;2.33;;;;;;;;;;8379022;28;20044;-76
2022/04/16 16:11:50;;;;;;;48.13;24.25;;;;;;;;;;8370738;28;20476;-77
2022/04/16 16:15:58;;;;;;;3.40;2.42;;;;;;;;;;8389091;28;20049;-77
2022/04/16 16:20:03;;;;;;;4.85;2.78;;;;;;;;;;8385777;28;20040;-77
2022/04/16 16:24:06;;;;;;;7.20;3.78;;;;;;;;;;8373693;28;20427;-77
2022/04/16 16:28:09;;;;;;;38.83;12.75;;;;;;;;;;8389935;28;20044;-77
2022/04/16 16:32:14;;;;;;;13.75;5.78;;;;;;;;;;8387844;28;20101;-76
2022/04/16 16:36:18;;;;;;;4.88;3.03;;;;;;;;;;8376836;28;20408;-76
2022/04/16 16:40:25;;;;;;;8.65;4.18;;;;;;;;;;8397911;28;20491;-76
2022/04/16 16:44:28;;;;;;;9.77;4.70;;;;;;;;;;8396780;28;20044;-75
2022/04/16 16:48:34;;;;;;;6.35;3.35;;;;;;;;;;8378774;28;20049;-77
2022/04/16 16:52:47;;;;;;;28.48;11.20;;;;;;;;;;8362970;28;20071;-76
2022/04/16 16:56:59;;;;;;;10.27;5.22;;;;;;;;;;8364778;28;20068;-75
2022/04/16 17:01:03;;;;;;;12.57;6.97;;;;;;;;;;8362114;28;20045;-75
2022/04/16 17:05:09;;;;;;;16.10;6.72;;;;;;;;;;8361864;28;20045;-75
2022/04/16 17:09:16;;;;;;;6.28;3.97;;;;;;;;;;8363118;28;20036;-75
2022/04/16 17:13:22;;;;;;;2.70;2.20;;;;;;;;;;8361627;28;20079;-76
2022/04/16 17:21:49;;;;;;;4.10;2.75;;;;;;;;;;8363465;28;20749;-76
2022/04/16 17:25:53;;;;;;;13.55;5.97;;;;;;;;;;8362050;28;20041;-78
2022/04/16 17:30:02;;;;;;;12.77;6.00;;;;;;;;;;8361090;28;20044;-75
2022/04/16 17:34:07;;;;;;;9.93;4.53;;;;;;;;;;8361340;28;20048;-77
2022/04/16 17:38:12;;;;;;;8.05;4.40;;;;;;;;;;8363232;28;20045;-77
2022/04/16 17:42:18;;;;;;;7.95;4.10;;;;;;;;;;8366185;28;20055;-77
2022/04/16 17:46:21;;;;;;;7.53;3.78;;;;;;;;;;8383572;28;20094;-74
2022/04/16 17:50:25;;;;;;;10.80;6.05;;;;;;;;;;8381518;28;20049;-76
2022/04/16 17:54:31;;;;;;;15.15;7.47;;;;;;;;;;8377143;28;20073;-74
2022/04/16 17:58:34;;;;;;;19.50;10.40;;;;;;;;;;8378593;28;20144;-75
2022/04/16 18:02:39;;;;;;;17.83;10.60;;;;;;;;;;8367093;28;20037;-77
2022/04/16 18:06:44;;;;;;;11.95;6.90;;;;;;;;;;8367073;28;20048;-76
2022/04/16 18:10:50;;;;;;;14.27;6.88;;;;;;;;;;8388337;28;20067;-77
2022/04/16 18:14:53;;;;;;;16.38;8.43;;;;;;;;;;8397847;28;20114;-76
2022/04/16 18:18:55;;;;;;;24.65;10.70;;;;;;;;;;8385890;28;20488;-76
2022/04/16 18:22:59;;;;;;;26.08;10.70;;;;;;;;;;8379199;28;20052;-77
2022/04/16 18:27:04;;;;;;;39.15;16.98;;;;;;;;;;8374012;28;20102;-77
2022/04/16 18:31:07;;;;;;;44.78;20.02;;;;;;;;;;8377970;28;20059;-77
2022/04/16 18:35:11;;;;;;;50.90;21.05;;;;;;;;;;8383614;28;20132;-78
2022/04/16 18:39:14;;;;;;;43.00;18.70;;;;;;;;;;8379493;28;20048;-77
2022/04/16 18:43:19;;;;;;;39.17;17.13;;;;;;;;;;8372266;28;20128;-77
2022/04/16 18:47:23;;;;;;;110.68;36.17;;;;;;;;;;8378051;28;20472;-77
2022/04/16 18:51:26;;;;;;;33.65;15.85;;;;;;;;;;8378857;28;20144;-77
2022/04/16 18:55:31;;;;;;;26.00;12.40;;;;;;;;;;8377915;28;20142;-77
2022/04/16 18:59:36;;;;;;;19.67;8.18;;;;;;;;;;8376003;28;20484;-77
2022/04/16 19:08:00;;;;;;;18.65;10.07;;;;;;;;;;8388020;28;20049;-77
2022/04/16 19:12:08;;;;;;;23.23;11.55;;;;;;;;;;8380040;28;20049;-76
2022/04/16 19:16:12;;;;;;;20.05;10.43;;;;;;;;;;8388610;28;20053;-77
2022/04/16 19:20:16;;;;;;;18.20;8.52;;;;;;;;;;8372557;28;20071;-77
2022/04/16 19:24:19;;;;;;;16.63;8.75;;;;;;;;;;8389518;28;20045;-77
2022/04/16 19:28:23;;;;;;;18.67;9.20;;;;;;;;;;8367175;28;20045;-77
2022/04/16 19:32:27;;;;;;;24.42;13.07;;;;;;;;;;8367466;28;20464;-76
2022/04/16 19:36:31;;;;;;;23.70;10.43;;;;;;;;;;8393257;28;20048;-76
2022/04/16 19:40:34;;;;;;;21.27;9.48;;;;;;;;;;8370312;28;20408;-76
2022/04/16 19:44:38;;;;;;;15.43;7.25;;;;;;;;;;8375125;28;20044;-77
2022/04/16 19:48:55;;;;;;;14.30;8.35;;;;;;;;;;8373671;28;20045;-77
2022/04/16 19:53:05;;;;;;;19.33;10.20;;;;;;;;;;8387417;28;20067;-77
2022/04/16 19:57:08;;;;;;;35.20;19.85;;;;;;;;;;8377612;28;20067;-76
2022/04/16 20:01:13;;;;;;;11.27;6.30;;;;;;;;;;8380643;28;20047;-77
2022/04/16 20:05:22;;;;;;;12.90;7.03;;;;;;;;;;8378302;28;20110;-77
2022/04/16 20:13:47;;;;;;;18.48;9.05;;;;;;;;;;8380998;28;20072;-77
2022/04/16 20:17:50;;;;;;;7.47;4.03;;;;;;;;;;8391679;28;20056;-76
2022/04/16 20:21:55;;;;;;;13.63;6.60;;;;;;;;;;8373103;28;20051;-76
2022/04/16 20:25:59;;;;;;;17.73;8.27;;;;;;;;;;8376230;28;20048;-76
2022/04/16 20:30:02;;;;;;;20.60;7.68;;;;;;;;;;8383854;28;20038;-75
2022/04/16 20:34:09;;;;;;;50.22;23.65;;;;;;;;;;8381418;28;20048;-77
2022/04/16 20:38:16;;;;;;;9.23;5.35;;;;;;;;;;8377527;28;20053;-77
2022/04/16 20:46:43;;;;;;;12.95;6.10;;;;;;;;;;8379926;28;20504;-75
2022/04/16 20:55:13;;;;;;;15.27;6.85;;;;;;;;;;8369915;28;20041;-75
2022/04/16 20:59:18;;;;;;;12.43;5.40;;;;;;;;;;8387215;28;20485;-77
2022/04/16 21:03:22;;;;;;;9.43;4.22;;;;;;;;;;8379564;28;20473;-76
2022/04/16 21:07:25;;;;;;;9.50;4.25;;;;;;;;;;8380085;28;20049;-76
2022/04/16 21:11:29;;;;;;;19.98;10.40;;;;;;;;;;8374099;28;20098;-76
2022/04/16 21:15:33;;;;;;;11.27;6.40;;;;;;;;;;8402417;28;20044;-75
2022/04/16 21:19:35;;;;;;;10.88;6.10;;;;;;;;;;8397260;28;20067;-75
2022/04/16 21:23:38;;;;;;;13.10;7.88;;;;;;;;;;8391818;28;20048;-78
2022/04/16 21:27:43;;;;;;;30.00;15.43;;;;;;;;;;8403772;28;20388;-77
2022/04/16 21:31:47;;;;;;;32.83;16.83;;;;;;;;;;8414287;28;20118;-76
2022/04/16 21:35:50;;;;;;;21.33;10.23;;;;;;;;;;8397285;28;20492;-76
2022/04/16 21:39:53;;;;;;;21.80;10.48;;;;;;;;;;8396575;28;20090;-76
2022/04/16 21:43:57;;;;;;;30.55;14.55;;;;;;;;;;8396678;28;20044;-75
2022/04/16 21:48:00;;;;;;;42.40;15.73;;;;;;;;;;8396094;28;20503;-76
2022/04/16 21:52:04;;;;;;;52.22;20.67;;;;;;;;;;8396610;28;20451;-76
2022/04/16 21:56:08;;;;;;;35.45;18.05;;;;;;;;;;8396661;28;20102;-77
2022/04/16 22:00:18;;;;;;;26.38;13.82;;;;;;;;;;8398434;28;20083;-76
2022/04/16 22:04:22;;;;;;;40.13;18.75;;;;;;;;;;8394432;28;20468;-78
2022/04/16 22:08:24;;;;;;;32.28;17.20;;;;;;;;;;8404666;28;20044;-76
2022/04/16 22:12:27;;;;;;;25.48;12.13;;;;;;;;;;8396705;28;20055;-76
2022/04/16 22:16:32;;;;;;;30.85;14.10;;;;;;;;;;8399007;28;20044;-76
2022/04/16 22:20:35;;;;;;;70.07;28.25;;;;;;;;;;8426119;28;20052;-76
2022/04/16 22:24:37;;;;;;;47.58;20.20;;;;;;;;;;8395669;28;20050;-76
2022/04/16 22:28:40;;;;;;;56.63;21.45;;;;;;;;;;8398678;28;20044;-76
2022/04/16 22:32:44;;;;;;;37.33;16.75;;;;;;;;;;8416807;28;20044;-76
2022/04/16 22:41:03;;;;;;;15.55;7.20;;;;;;;;;;8378586;28;20236;-76
2022/04/16 22:45:07;;;;;;;16.83;7.60;;;;;;;;;;8401410;28;20041;-76
2022/04/16 22:49:11;;;;;;;13.13;7.13;;;;;;;;;;8401988;28;20496;-76
2022/04/16 22:53:14;;;;;;;18.73;7.57;;;;;;;;;;8401244;28;20074;-76
2022/04/16 22:57:16;;;;;;;15.85;8.13;;;;;;;;;;8401242;28;20396;-76
2022/04/16 23:01:19;;;;;;;13.25;6.45;;;;;;;;;;8398748;28;20162;-76
2022/04/16 23:05:23;;;;;;;11.68;5.38;;;;;;;;;;8413078;28;20059;-76
2022/04/16 23:09:26;;;;;;;10.50;5.38;;;;;;;;;;8434748;28;20384;-76
2022/04/16 23:13:29;;;;;;;20.92;9.40;;;;;;;;;;8420232;28;20052;-76
2022/04/16 23:17:31;;;;;;;12.77;6.75;;;;;;;;;;8417886;28;20048;-76
2022/04/16 23:21:35;;;;;;;30.92;12.02;;;;;;;;;;8400893;28;20472;-76
2022/04/16 23:25:38;;;;;;;27.73;10.45;;;;;;;;;;8400286;28;20041;-77
2022/04/16 23:29:40;;;;;;;19.67;7.85;;;;;;;;;;8400453;28;20045;-76
2022/04/16 23:33:43;;;;;;;21.77;10.02;;;;;;;;;;8383967;28;20058;-77
2022/04/16 23:37:49;;;;;;;30.67;12.57;;;;;;;;;;8386266;28;20132;-77
2022/04/16 23:41:51;;;;;;;27.45;12.25;;;;;;;;;;8383839;28;20045;-77
2022/04/16 23:50:14;;;;;;;26.40;12.93;;;;;;;;;;8373136;28;20511;-77
2022/04/16 23:54:18;;;;;;;33.95;16.48;;;;;;;;;;8374282;28;20098;-77
2022/04/16 23:58:22;;;;;;;33.30;15.50;;;;;;;;;;8378218;28;20480;-77
